Terminal Aerodrome Forecast
Issued by NWS Tampa Bay Area, FL

Home | Current Version | Previous Version | Text Only | Print | Product List | Glossary On
Versions: 1 2 3 4 5 6 7 8 9 10 11 12 13
320
FTUS42 KTBW 121738
TAFSRQ
TAF
KSRQ 121738Z 1218/1318 24010KT P6SM FEW040
     FM130200 24004KT P6SM FEW035
     FM130800 29005KT P6SM SCT035
     FM131100 34008KT P6SM SCT035
     FM131400 36012G18KT P6SM SKC=

USA.gov is the U.S. government's official web portal to all federal, state and local government web resources and services.